createdAt,value
2023-01-06T00:01:32.688Z,9.11
2023-01-06T00:04:01.025Z,9.01
2023-01-06T00:06:31.877Z,8.93
2023-01-06T00:09:02.613Z,8.95
2023-01-06T00:11:31.234Z,8.87
2023-01-06T00:13:59.511Z,8.85
2023-01-06T00:16:26.484Z,8.83
2023-01-06T00:18:58.308Z,8.91
2023-01-06T00:21:26.165Z,8.91
2023-01-06T00:23:53.263Z,8.94
2023-01-06T00:26:20.559Z,8.94
2023-01-06T00:28:47.992Z,8.92
2023-01-06T00:31:16.874Z,8.98
2023-01-06T00:33:44.388Z,8.94
2023-01-06T00:36:12.753Z,8.93
2023-01-06T00:38:40.712Z,8.94
2023-01-06T00:41:31.171Z,8.75
2023-01-06T00:43:59.213Z,9.02
2023-01-06T00:46:29.731Z,8.99
2023-01-06T00:49:07.193Z,8.94
2023-01-06T00:51:39.999Z,8.88
2023-01-06T00:54:08.762Z,8.90
2023-01-06T00:56:41.720Z,8.94
2023-01-06T00:59:10.141Z,8.89
2023-01-06T01:01:38.263Z,8.66
2023-01-06T01:04:06.464Z,8.83
2023-01-06T01:06:34.176Z,8.85
2023-01-06T01:09:01.438Z,8.76
2023-01-06T01:11:47.880Z,8.88
2023-01-06T01:14:17.558Z,8.78
2023-01-06T01:16:44.755Z,8.74
2023-01-06T01:19:13.122Z,8.78
2023-01-06T01:21:40.689Z,8.78
2023-01-06T01:24:08.098Z,8.75
2023-01-06T01:26:35.321Z,8.75
2023-01-06T01:29:02.949Z,8.69
2023-01-06T01:31:30.627Z,8.78
2023-01-06T01:33:57.787Z,8.71
2023-01-06T01:36:24.774Z,8.73
2023-01-06T01:38:51.741Z,8.69
2023-01-06T01:41:21.969Z,8.71
2023-01-06T01:43:50.771Z,8.70
2023-01-06T01:46:23.757Z,8.59
2023-01-06T01:48:52.827Z,8.58
2023-01-06T01:51:25.026Z,8.62
2023-01-06T01:53:57.148Z,8.68
2023-01-06T01:56:29.187Z,8.52
2023-01-06T01:59:15.943Z,8.43
2023-01-06T02:01:43.056Z,8.50
2023-01-06T02:04:10.696Z,8.41
2023-01-06T02:06:43.134Z,8.39
2023-01-06T02:09:32.999Z,8.52
2023-01-06T02:12:00.170Z,8.48
2023-01-06T02:14:28.821Z,8.47
2023-01-06T02:17:30.526Z,8.44
2023-01-06T02:20:36.370Z,8.40
2023-01-06T02:23:34.909Z,8.46
2023-01-06T02:26:33.805Z,8.54
2023-01-06T02:29:03.843Z,8.52
2023-01-06T02:31:55.737Z,8.58
2023-01-06T02:34:41.803Z,8.61
2023-01-06T02:37:27.311Z,8.62
2023-01-06T02:40:00.825Z,8.59
2023-01-06T02:42:39.851Z,8.55
2023-01-06T02:45:46.085Z,8.54
2023-01-06T02:48:36.698Z,8.57
2023-01-06T02:51:14.254Z,8.50
2023-01-06T02:53:44.661Z,8.61
2023-01-06T02:56:12.126Z,8.53
2023-01-06T02:58:38.921Z,8.59
2023-01-06T03:01:24.599Z,8.40
2023-01-06T03:03:53.526Z,8.35
2023-01-06T03:06:31.507Z,8.50
2023-01-06T03:09:01.327Z,8.47
2023-01-06T03:11:31.931Z,8.50
2023-01-06T03:14:20.404Z,8.47
2023-01-06T03:16:48.110Z,8.46
2023-01-06T03:19:15.843Z,8.40
2023-01-06T03:21:46.736Z,8.38
2023-01-06T03:24:13.967Z,8.14
2023-01-06T03:26:43.598Z,8.33
2023-01-06T03:29:13.851Z,8.32
2023-01-06T03:32:08.033Z,8.30
2023-01-06T03:35:17.892Z,8.25
2023-01-06T03:37:51.516Z,8.28
2023-01-06T03:40:27.766Z,8.25
2023-01-06T03:43:16.392Z,8.08
2023-01-06T03:45:52.108Z,8.04
2023-01-06T03:48:39.724Z,7.95
2023-01-06T03:51:13.012Z,7.93
2023-01-06T03:54:31.415Z,7.83
2023-01-06T03:57:21.166Z,7.77
2023-01-06T03:59:53.990Z,7.87
2023-01-06T04:02:22.520Z,7.81
2023-01-06T04:05:02.772Z,7.86
2023-01-06T04:07:30.666Z,7.87
2023-01-06T04:09:57.736Z,7.97
2023-01-06T04:12:39.921Z,7.93
2023-01-06T04:15:30.784Z,7.95
2023-01-06T04:17:59.251Z,7.93
2023-01-06T04:20:30.575Z,7.95
2023-01-06T04:23:13.060Z,7.91
2023-01-06T04:25:42.498Z,7.91
2023-01-06T04:28:15.125Z,7.93
2023-01-06T04:30:43.474Z,7.83
2023-01-06T04:33:11.087Z,7.89
2023-01-06T04:35:41.816Z,7.89
2023-01-06T04:38:09.638Z,7.80
2023-01-06T04:40:36.553Z,7.76
2023-01-06T04:43:06.744Z,7.87
2023-01-06T04:45:35.478Z,7.37
2023-01-06T04:48:02.639Z,7.87
2023-01-06T04:50:29.680Z,7.83
2023-01-06T04:52:56.698Z,7.89
2023-01-06T04:55:24.045Z,7.85
2023-01-06T04:57:51.275Z,7.93
2023-01-06T05:00:18.815Z,7.80
2023-01-06T05:02:46.386Z,7.93
2023-01-06T05:05:13.706Z,7.87
2023-01-06T05:07:40.657Z,7.89
2023-01-06T05:10:09.607Z,7.84
2023-01-06T05:12:37.239Z,7.89
2023-01-06T05:15:05.077Z,7.31
2023-01-06T05:17:32.363Z,7.67
2023-01-06T05:19:59.252Z,7.75
2023-01-06T05:22:26.159Z,7.69
2023-01-06T05:24:52.998Z,7.62
2023-01-06T05:27:20.443Z,7.63
2023-01-06T05:29:47.653Z,7.60
2023-01-06T05:32:14.848Z,7.54
2023-01-06T05:34:41.603Z,7.60
2023-01-06T05:37:08.395Z,7.59
2023-01-06T05:39:35.282Z,7.58
2023-01-06T05:42:02.468Z,7.56
2023-01-06T05:44:29.422Z,7.49
2023-01-06T05:46:56.468Z,7.51
2023-01-06T05:49:23.532Z,7.44
2023-01-06T05:51:50.463Z,7.47
2023-01-06T05:54:17.366Z,7.36
2023-01-06T05:56:44.428Z,7.34
2023-01-06T05:59:11.551Z,7.33
2023-01-06T06:01:38.488Z,7.33
2023-01-06T06:04:05.543Z,7.23
2023-01-06T06:06:32.577Z,7.13
2023-01-06T06:08:59.818Z,7.11
2023-01-06T06:11:26.877Z,7.11
2023-01-06T06:13:56.232Z,7.18
2023-01-06T06:16:25.764Z,6.93
2023-01-06T06:18:55.318Z,7.06
2023-01-06T06:21:24.959Z,7.10
2023-01-06T06:23:56.580Z,7.24
2023-01-06T06:26:24.332Z,7.17
2023-01-06T06:28:51.629Z,7.13
2023-01-06T06:31:26.941Z,7.46
2023-01-06T06:33:59.079Z,7.46
2023-01-06T06:36:27.056Z,7.56
2023-01-06T06:38:54.708Z,7.59
2023-01-06T06:41:23.704Z,7.70
2023-01-06T06:43:51.163Z,7.79
2023-01-06T06:46:19.205Z,7.73
2023-01-06T06:48:46.316Z,7.85
2023-01-06T06:51:19.338Z,7.94
2023-01-06T06:53:46.980Z,7.99
2023-01-06T06:56:16.254Z,8.03
2023-01-06T06:58:43.606Z,8.12
2023-01-06T07:01:13.231Z,8.20
2023-01-06T07:03:40.534Z,8.21
2023-01-06T07:06:10.235Z,8.37
2023-01-06T07:08:37.509Z,8.40
2023-01-06T07:11:04.954Z,8.41
2023-01-06T07:13:31.928Z,8.54
2023-01-06T07:15:59.081Z,8.57
2023-01-06T07:18:26.038Z,8.62
2023-01-06T07:20:55.742Z,8.55
2023-01-06T07:23:24.369Z,8.56
2023-01-06T07:25:53.336Z,8.47
2023-01-06T07:28:20.337Z,8.62
2023-01-06T07:30:47.913Z,8.88
2023-01-06T07:33:15.656Z,8.93
2023-01-06T07:35:42.772Z,8.97
2023-01-06T07:38:10.998Z,8.80
2023-01-06T07:40:38.313Z,8.95
2023-01-06T07:43:10.121Z,9.05
2023-01-06T07:45:38.057Z,9.11
2023-01-06T07:48:05.609Z,9.17
2023-01-06T07:50:32.809Z,9.15
2023-01-06T07:53:02.082Z,9.31
2023-01-06T07:55:30.504Z,9.03
2023-01-06T07:57:59.076Z,9.34
2023-01-06T08:00:26.566Z,9.39
2023-01-06T08:02:53.692Z,9.30
2023-01-06T08:05:20.939Z,9.46
2023-01-06T08:07:47.848Z,9.48
2023-01-06T08:10:15.034Z,9.45
2023-01-06T08:12:42.184Z,9.50
2023-01-06T08:15:09.231Z,9.58
2023-01-06T08:17:36.076Z,9.61
2023-01-06T08:20:03.445Z,9.56
2023-01-06T08:22:30.490Z,9.65
2023-01-06T08:24:57.765Z,9.63
2023-01-06T08:27:24.754Z,9.67
2023-01-06T08:29:54.881Z,9.69
2023-01-06T08:32:22.915Z,9.89
2023-01-06T08:34:49.881Z,9.93
2023-01-06T08:37:17.196Z,9.96
2023-01-06T08:39:44.496Z,10.09
2023-01-06T08:42:12.186Z,9.96
2023-01-06T08:44:39.592Z,10.02
2023-01-06T08:47:06.642Z,10.01
2023-01-06T08:49:33.677Z,10.11
2023-01-06T08:52:00.912Z,10.14
2023-01-06T08:54:29.784Z,10.13
2023-01-06T08:56:57.482Z,10.21
2023-01-06T08:59:24.464Z,10.23
2023-01-06T09:01:52.464Z,10.36
2023-01-06T09:04:20.509Z,10.38
2023-01-06T09:06:47.615Z,10.33
2023-01-06T09:09:14.892Z,10.49
2023-01-06T09:11:43.852Z,10.48
2023-01-06T09:14:14.267Z,10.50
2023-01-06T09:16:42.048Z,10.48
2023-01-06T09:19:10.517Z,10.62
2023-01-06T09:21:43.017Z,10.59
2023-01-06T09:24:14.605Z,10.61
2023-01-06T09:26:41.924Z,10.67
2023-01-06T09:29:09.476Z,10.65
2023-01-06T09:31:36.824Z,10.67
2023-01-06T09:34:06.547Z,10.72
2023-01-06T09:36:34.691Z,10.79
2023-01-06T09:39:01.587Z,10.87
2023-01-06T09:41:52.757Z,11.01
2023-01-06T09:44:27.154Z,11.03
2023-01-06T09:46:54.751Z,11.16
2023-01-06T09:49:37.628Z,11.02
2023-01-06T09:52:31.870Z,11.10
2023-01-06T09:55:17.011Z,11.03
2023-01-06T09:58:06.126Z,11.10
2023-01-06T10:00:43.303Z,11.26
2023-01-06T10:03:20.320Z,11.05
2023-01-06T10:05:56.431Z,11.24
2023-01-06T10:08:35.547Z,11.36
2023-01-06T10:11:16.074Z,11.31
2023-01-06T10:13:51.857Z,10.84
2023-01-06T10:16:30.836Z,11.31
2023-01-06T10:19:28.430Z,11.36
2023-01-06T10:22:08.571Z,11.30
2023-01-06T10:24:58.825Z,11.14
2023-01-06T10:27:42.429Z,11.18
2023-01-06T10:30:30.875Z,11.18
2023-01-06T10:33:01.891Z,11.09
2023-01-06T10:35:29.440Z,11.35
2023-01-06T10:37:58.192Z,11.49
2023-01-06T10:40:30.736Z,11.50
2023-01-06T10:43:06.652Z,11.30
2023-01-06T10:45:47.273Z,11.50
2023-01-06T10:48:18.397Z,11.55
2023-01-06T10:50:45.331Z,11.64
2023-01-06T10:53:14.172Z,11.65
2023-01-06T10:55:50.475Z,11.68
2023-01-06T10:58:36.011Z,11.52
2023-01-06T11:01:18.059Z,11.52
2023-01-06T11:03:46.036Z,11.78
2023-01-06T11:06:28.068Z,11.55
2023-01-06T11:08:56.339Z,11.57
2023-01-06T11:11:28.796Z,11.56
2023-01-06T11:13:59.557Z,11.61
2023-01-06T11:16:30.690Z,11.61
2023-01-06T11:19:01.323Z,11.76
2023-01-06T11:21:44.460Z,11.88
2023-01-06T11:24:17.126Z,11.81
2023-01-06T11:26:46.185Z,11.83
2023-01-06T11:29:19.889Z,11.95
2023-01-06T11:31:50.591Z,11.81
2023-01-06T11:34:27.092Z,11.71
2023-01-06T11:36:54.168Z,11.85
2023-01-06T11:39:42.109Z,11.92
2023-01-06T11:42:13.400Z,12.06
2023-01-06T11:44:43.274Z,12.08
2023-01-06T11:47:22.554Z,12.07
2023-01-06T11:49:52.788Z,12.02
2023-01-06T11:52:31.191Z,12.13
2023-01-06T11:55:03.361Z,12.03
2023-01-06T11:57:54.252Z,12.01
2023-01-06T12:00:27.129Z,12.08
2023-01-06T12:03:33.143Z,12.09
2023-01-06T12:06:21.564Z,12.24
2023-01-06T12:08:51.670Z,12.32
2023-01-06T12:11:36.266Z,11.94
2023-01-06T12:14:19.658Z,12.09
2023-01-06T12:16:59.611Z,12.23
2023-01-06T12:19:50.140Z,12.22
2023-01-06T12:22:42.165Z,12.15
2023-01-06T12:25:50.008Z,12.41
2023-01-06T12:28:18.733Z,12.58
2023-01-06T12:31:16.853Z,12.76
2023-01-06T12:34:06.247Z,12.77
2023-01-06T12:36:50.667Z,12.71
2023-01-06T12:39:43.382Z,12.87
2023-01-06T12:42:26.305Z,12.85
2023-01-06T12:45:14.275Z,12.98
2023-01-06T12:47:55.131Z,12.98
2023-01-06T12:50:46.055Z,13.74
2023-01-06T12:53:29.097Z,15.19
2023-01-06T12:56:08.239Z,15.35
2023-01-06T12:58:59.949Z,14.96
2023-01-06T13:01:31.684Z,14.29
2023-01-06T13:04:17.847Z,13.99
2023-01-06T13:06:53.300Z,13.53
2023-01-06T13:09:51.174Z,13.31
2023-01-06T13:12:30.651Z,13.09
2023-01-06T13:15:21.786Z,12.99
2023-01-06T13:17:52.178Z,12.87
2023-01-06T13:20:26.293Z,12.56
2023-01-06T13:23:14.922Z,12.54
2023-01-06T13:26:03.183Z,12.44
2023-01-06T13:28:39.606Z,12.34
2023-01-06T13:31:40.912Z,12.35
2023-01-06T13:34:17.931Z,12.28
2023-01-06T13:36:54.009Z,12.03
2023-01-06T13:39:25.540Z,12.01
2023-01-06T13:41:56.932Z,12.06
2023-01-06T13:44:29.161Z,12.06
2023-01-06T13:47:19.893Z,12.04
2023-01-06T13:49:47.465Z,11.98
2023-01-06T13:52:23.933Z,11.94
2023-01-06T13:54:51.402Z,11.95
2023-01-06T13:57:21.201Z,11.86
2023-01-06T13:59:52.914Z,11.82
2023-01-06T14:02:40.573Z,11.68
2023-01-06T14:05:30.504Z,11.69
2023-01-06T14:08:03.549Z,11.61
2023-01-06T14:10:36.501Z,11.50
2023-01-06T14:13:08.061Z,11.54
2023-01-06T14:15:36.577Z,11.12
2023-01-06T14:18:04.111Z,11.26
2023-01-06T14:20:37.054Z,11.37
2023-01-06T14:23:22.952Z,11.20
2023-01-06T14:25:54.211Z,11.23
2023-01-06T14:28:21.434Z,11.17
2023-01-06T14:30:50.975Z,11.14
2023-01-06T14:33:38.147Z,11.11
2023-01-06T14:36:18.254Z,10.98
2023-01-06T14:38:49.639Z,10.86
2023-01-06T14:41:27.083Z,10.84
2023-01-06T14:43:58.535Z,10.70
2023-01-06T14:46:27.759Z,10.66
2023-01-06T14:49:12.985Z,10.57
2023-01-06T14:51:44.132Z,10.36
2023-01-06T14:54:33.612Z,10.45
2023-01-06T14:57:03.564Z,10.41
2023-01-06T14:59:30.716Z,10.36
2023-01-06T15:02:15.271Z,10.32
2023-01-06T15:04:44.088Z,10.24
2023-01-06T15:07:21.941Z,10.10
2023-01-06T15:09:50.926Z,10.08
2023-01-06T15:12:32.137Z,10.02
2023-01-06T15:15:21.561Z,9.97
2023-01-06T15:17:49.201Z,9.89
2023-01-06T15:20:16.522Z,9.80
2023-01-06T15:22:49.321Z,9.80
2023-01-06T15:25:22.678Z,9.61
2023-01-06T15:27:50.892Z,9.64
2023-01-06T15:30:20.018Z,8.97
2023-01-06T15:32:48.240Z,9.33
2023-01-06T15:35:20.509Z,9.32
2023-01-06T15:37:49.270Z,9.27
2023-01-06T15:40:21.801Z,9.11
2023-01-06T15:42:49.586Z,9.03
2023-01-06T15:45:25.792Z,9.05
2023-01-06T15:47:54.433Z,8.41
2023-01-06T15:50:25.650Z,8.64
2023-01-06T15:52:54.472Z,8.79
2023-01-06T15:55:31.973Z,8.64
2023-01-06T15:58:04.748Z,8.60
2023-01-06T16:00:36.648Z,8.45
2023-01-06T16:03:06.297Z,8.38
2023-01-06T16:05:35.330Z,8.31
2023-01-06T16:08:05.276Z,8.36
2023-01-06T16:10:38.256Z,8.22
2023-01-06T16:13:05.919Z,8.19
2023-01-06T16:15:46.157Z,8.15
2023-01-06T16:18:14.086Z,8.13
2023-01-06T16:20:41.271Z,8.03
2023-01-06T16:23:25.086Z,8.02
2023-01-06T16:26:04.629Z,7.90
2023-01-06T16:28:31.615Z,7.91
2023-01-06T16:31:07.114Z,7.79
2023-01-06T16:33:40.515Z,7.70
2023-01-06T16:36:17.691Z,7.60
2023-01-06T16:38:44.976Z,7.50
2023-01-06T16:41:19.506Z,7.45
2023-01-06T16:43:46.796Z,7.41
2023-01-06T16:46:20.370Z,7.24
2023-01-06T16:48:47.748Z,7.35
2023-01-06T16:51:19.866Z,7.33
2023-01-06T16:53:47.973Z,7.21
2023-01-06T16:56:22.782Z,7.22
2023-01-06T16:58:51.133Z,7.05
2023-01-06T17:01:21.635Z,7.06
2023-01-06T17:03:56.432Z,7.05
2023-01-06T17:06:26.866Z,7.08
2023-01-06T17:09:01.014Z,7.07
2023-01-06T17:11:31.054Z,6.97
2023-01-06T17:14:01.841Z,7.03
2023-01-06T17:16:33.741Z,6.95
2023-01-06T17:19:15.433Z,7.14
2023-01-06T17:21:42.402Z,7.07
2023-01-06T17:24:09.209Z,7.09
2023-01-06T17:26:36.505Z,7.03
2023-01-06T17:29:14.919Z,7.09
2023-01-06T17:31:44.869Z,6.97
2023-01-06T17:34:22.262Z,7.16
2023-01-06T17:36:55.816Z,7.09
2023-01-06T17:39:32.644Z,7.06
2023-01-06T17:42:05.538Z,7.04
2023-01-06T17:44:42.770Z,7.00
2023-01-06T17:47:29.933Z,6.71
2023-01-06T17:49:59.400Z,6.98
2023-01-06T17:52:41.740Z,6.90
2023-01-06T17:55:44.962Z,6.94
2023-01-06T17:58:17.878Z,6.74
2023-01-06T18:00:46.232Z,6.34
2023-01-06T18:03:33.606Z,6.71
2023-01-06T18:06:00.593Z,6.63
2023-01-06T18:08:31.186Z,6.54
2023-01-06T18:11:05.589Z,6.54
2023-01-06T18:13:35.891Z,6.59
2023-01-06T18:16:25.869Z,6.51
2023-01-06T18:18:53.104Z,6.53
2023-01-06T18:21:25.801Z,6.51
2023-01-06T18:23:53.279Z,6.43
2023-01-06T18:26:26.356Z,6.41
2023-01-06T18:28:59.360Z,6.42
2023-01-06T18:31:29.772Z,6.39
2023-01-06T18:33:56.910Z,6.36
2023-01-06T18:36:26.985Z,6.34
2023-01-06T18:38:56.662Z,6.24
2023-01-06T18:41:26.723Z,6.18
2023-01-06T18:43:54.531Z,6.05
2023-01-06T18:46:21.451Z,6.04
2023-01-06T18:48:48.432Z,6.08
2023-01-06T18:51:22.129Z,6.07
2023-01-06T18:53:50.880Z,6.28
2023-01-06T18:56:22.501Z,6.19
2023-01-06T18:58:58.740Z,5.94
2023-01-06T19:01:49.892Z,5.95
2023-01-06T19:04:31.519Z,5.93
2023-01-06T19:07:01.867Z,5.88
2023-01-06T19:09:36.548Z,5.88
2023-01-06T19:12:09.934Z,5.92
2023-01-06T19:14:40.759Z,5.93
2023-01-06T19:17:31.404Z,5.72
2023-01-06T19:20:01.644Z,5.53
2023-01-06T19:23:26.285Z,5.58
2023-01-06T19:26:30.389Z,5.45
2023-01-06T19:29:02.162Z,5.39
2023-01-06T19:31:30.724Z,5.34
2023-01-06T19:34:02.239Z,5.31
2023-01-06T19:36:35.066Z,5.27
2023-01-06T19:39:15.737Z,5.20
2023-01-06T19:41:42.921Z,5.24
2023-01-06T19:44:13.156Z,5.24
2023-01-06T19:46:42.969Z,5.17
2023-01-06T19:49:18.011Z,5.19
2023-01-06T19:51:46.505Z,5.17
2023-01-06T19:54:28.825Z,5.26
2023-01-06T19:56:57.956Z,5.18
2023-01-06T19:59:29.669Z,5.35
2023-01-06T20:02:21.049Z,5.38
2023-01-06T20:04:48.374Z,5.20
2023-01-06T20:07:15.346Z,5.31
2023-01-06T20:09:42.382Z,5.23
2023-01-06T20:12:13.202Z,5.12
2023-01-06T20:14:43.814Z,5.07
2023-01-06T20:17:39.151Z,5.12
2023-01-06T20:21:12.090Z,4.86
2023-01-06T20:24:05.286Z,4.76
2023-01-06T20:26:34.232Z,4.79
2023-01-06T20:29:03.680Z,4.80
2023-01-06T20:31:31.766Z,4.80
2023-01-06T20:34:00.235Z,4.79
2023-01-06T20:36:27.703Z,4.75
2023-01-06T20:38:54.760Z,4.64
2023-01-06T20:41:21.723Z,4.66
2023-01-06T20:43:49.191Z,4.69
2023-01-06T20:46:16.165Z,4.63
2023-01-06T20:48:43.149Z,4.67
2023-01-06T20:51:12.528Z,4.75
2023-01-06T20:53:39.615Z,4.72
2023-01-06T20:56:07.648Z,4.58
2023-01-06T20:58:36.089Z,4.63
2023-01-06T21:01:03.248Z,4.47
2023-01-06T21:03:31.348Z,4.45
2023-01-06T21:05:58.407Z,4.39
2023-01-06T21:08:25.253Z,4.28
2023-01-06T21:10:52.160Z,4.18
2023-01-06T21:13:18.989Z,4.08
2023-01-06T21:15:45.827Z,4.08
2023-01-06T21:18:12.755Z,4.10
2023-01-06T21:20:39.773Z,4.07
2023-01-06T21:23:06.697Z,4.05
2023-01-06T21:25:33.658Z,3.96
2023-01-06T21:28:00.600Z,3.83
2023-01-06T21:30:29.177Z,3.71
2023-01-06T21:32:56.137Z,3.70
2023-01-06T21:35:23.208Z,3.63
2023-01-06T21:37:50.061Z,3.75
2023-01-06T21:40:16.987Z,3.88
2023-01-06T21:43:02.464Z,3.89
2023-01-06T21:45:29.548Z,3.93
2023-01-06T21:47:56.467Z,3.83
2023-01-06T21:50:26.000Z,3.89
2023-01-06T21:52:54.112Z,3.86
2023-01-06T21:55:21.157Z,3.88
2023-01-06T21:57:51.183Z,3.90
2023-01-06T22:00:18.344Z,4.00
2023-01-06T22:02:46.838Z,3.91
2023-01-06T22:05:14.665Z,4.04
2023-01-06T22:07:45.866Z,3.92
2023-01-06T22:10:15.323Z,4.03
2023-01-06T22:12:47.577Z,4.14
2023-01-06T22:15:35.341Z,4.16
2023-01-06T22:18:03.212Z,4.23
2023-01-06T22:20:32.243Z,4.16
2023-01-06T22:23:02.412Z,4.07
2023-01-06T22:25:29.548Z,4.10
2023-01-06T22:27:58.745Z,4.07
2023-01-06T22:30:27.011Z,4.11
2023-01-06T22:32:54.003Z,4.22
2023-01-06T22:35:20.996Z,4.36
2023-01-06T22:37:48.043Z,4.19
2023-01-06T22:40:15.314Z,4.13
2023-01-06T22:42:43.005Z,3.99
2023-01-06T22:45:11.540Z,4.00
2023-01-06T22:47:38.929Z,3.94
2023-01-06T22:50:06.647Z,3.86
2023-01-06T22:52:33.695Z,3.84
2023-01-06T22:55:00.739Z,3.75
2023-01-06T22:57:27.657Z,3.86
2023-01-06T22:59:54.778Z,3.84
2023-01-06T23:02:22.049Z,3.81
2023-01-06T23:04:49.812Z,3.81
2023-01-06T23:07:16.911Z,3.77
2023-01-06T23:09:44.146Z,3.78
2023-01-06T23:12:11.317Z,3.69
2023-01-06T23:14:38.630Z,3.77
2023-01-06T23:17:05.537Z,3.69
2023-01-06T23:19:32.493Z,3.53
2023-01-06T23:21:59.588Z,3.37
2023-01-06T23:24:26.774Z,3.47
2023-01-06T23:26:53.824Z,3.49
2023-01-06T23:29:20.839Z,3.55
2023-01-06T23:31:47.836Z,3.61
2023-01-06T23:34:17.675Z,3.37
2023-01-06T23:36:45.103Z,3.43
2023-01-06T23:39:14.688Z,3.40
2023-01-06T23:41:41.866Z,3.43
2023-01-06T23:44:17.688Z,3.44
2023-01-06T23:46:45.854Z,3.39
2023-01-06T23:49:14.769Z,3.39
2023-01-06T23:51:41.984Z,3.43
2023-01-06T23:54:10.867Z,3.55
2023-01-06T23:56:38.479Z,3.50
2023-01-06T23:59:08.461Z,3.52
